createdAt,value
2023-01-04T00:00:45.220Z,79.30
2023-01-04T00:02:47.295Z,79.27
2023-01-04T00:04:49.284Z,79.44
2023-01-04T00:06:51.178Z,79.17
2023-01-04T00:08:54.228Z,79.53
2023-01-04T00:11:04.503Z,79.98
2023-01-04T00:13:06.363Z,79.13
2023-01-04T00:15:08.812Z,79.44
2023-01-04T00:17:10.660Z,79.75
2023-01-04T00:19:13.291Z,79.57
2023-01-04T00:21:21.903Z,79.50
2023-01-04T00:23:23.806Z,79.94
2023-01-04T00:25:26.037Z,79.88
2023-01-04T00:27:28.077Z,80.26
2023-01-04T00:29:29.968Z,80.44
2023-01-04T00:31:32.175Z,80.37
2023-01-04T00:33:34.337Z,80.76
2023-01-04T00:35:45.807Z,80.80
2023-01-04T00:37:51.858Z,80.84
2023-01-04T00:39:54.116Z,81.28
2023-01-04T00:42:05.420Z,81.41
2023-01-04T00:44:10.542Z,81.50
2023-01-04T00:46:12.729Z,81.88
2023-01-04T00:48:14.679Z,82.50
2023-01-04T00:50:16.716Z,82.93
2023-01-04T00:52:18.683Z,82.70
2023-01-04T00:54:21.683Z,82.83
2023-01-04T00:56:23.761Z,82.59
2023-01-04T00:58:25.618Z,83.15
2023-01-04T01:00:27.536Z,83.34
2023-01-04T01:02:29.850Z,83.48
2023-01-04T01:04:31.957Z,84.04
2023-01-04T01:06:35.284Z,83.94
2023-01-04T01:08:37.632Z,84.33
2023-01-04T01:10:39.540Z,83.95
2023-01-04T01:12:42.527Z,84.11
2023-01-04T01:14:45.511Z,84.00
2023-01-04T01:16:57.707Z,84.58
2023-01-04T01:19:00.893Z,84.55
2023-01-04T01:21:14.082Z,84.49
2023-01-04T01:23:15.969Z,84.76
2023-01-04T01:25:17.953Z,84.74
2023-01-04T01:27:19.792Z,85.22
2023-01-04T01:29:21.812Z,85.09
2023-01-04T01:31:27.563Z,85.17
2023-01-04T01:33:30.517Z,84.93
2023-01-04T01:35:33.718Z,84.84
2023-01-04T01:37:35.561Z,85.31
2023-01-04T01:39:37.420Z,85.77
2023-01-04T01:41:39.628Z,85.67
2023-01-04T01:43:56.768Z,86.51
2023-01-04T01:45:58.771Z,86.41
2023-01-04T01:48:07.403Z,86.33
2023-01-04T01:50:39.963Z,86.40
2023-01-04T01:52:41.868Z,86.44
2023-01-04T01:54:47.878Z,86.46
2023-01-04T01:56:51.999Z,86.52
2023-01-04T01:58:56.068Z,86.49
2023-01-04T02:00:58.561Z,86.86
2023-01-04T02:03:18.988Z,87.29
2023-01-04T02:05:21.660Z,86.96
2023-01-04T02:07:28.871Z,87.42
2023-01-04T02:09:32.607Z,87.40
2023-01-04T02:11:34.530Z,87.55
2023-01-04T02:13:57.873Z,87.76
2023-01-04T02:16:23.219Z,88.01
2023-01-04T02:18:30.848Z,87.49
2023-01-04T02:20:47.763Z,87.37
2023-01-04T02:23:38.797Z,87.46
2023-01-04T02:25:58.546Z,87.36
2023-01-04T02:28:18.952Z,88.23
2023-01-04T02:30:33.248Z,87.64
2023-01-04T02:33:03.075Z,88.17
2023-01-04T02:35:14.207Z,87.94
2023-01-04T02:37:31.323Z,88.11
2023-01-04T02:39:43.813Z,87.74
2023-01-04T02:41:56.616Z,87.99
2023-01-04T02:44:28.965Z,88.01
2023-01-04T02:46:35.611Z,88.04
2023-01-04T02:48:58.672Z,87.97
2023-01-04T02:51:01.242Z,87.91
2023-01-04T02:53:11.331Z,87.95
2023-01-04T02:55:13.213Z,87.53
2023-01-04T02:57:42.724Z,87.72
2023-01-04T03:00:03.740Z,87.65
2023-01-04T03:02:30.271Z,87.62
2023-01-04T03:05:06.939Z,87.99
2023-01-04T03:07:32.092Z,87.51
2023-01-04T03:09:41.380Z,87.94
2023-01-04T03:12:27.986Z,87.46
2023-01-04T03:14:38.952Z,88.14
2023-01-04T03:16:44.229Z,88.05
2023-01-04T03:18:51.260Z,88.59
2023-01-04T03:20:55.780Z,88.04
2023-01-04T03:23:27.474Z,88.50
2023-01-04T03:25:58.398Z,88.15
2023-01-04T03:28:19.756Z,88.03
2023-01-04T03:30:46.219Z,87.97
2023-01-04T03:33:15.035Z,88.20
2023-01-04T03:35:28.360Z,88.43
2023-01-04T03:38:13.050Z,88.45
2023-01-04T03:40:45.887Z,88.56
2023-01-04T03:43:26.749Z,88.56
2023-01-04T03:45:52.657Z,88.70
2023-01-04T03:48:21.902Z,88.58
2023-01-04T03:50:31.954Z,89.03
2023-01-04T03:52:35.974Z,89.05
2023-01-04T03:54:41.645Z,89.68
2023-01-04T03:56:45.316Z,89.57
2023-01-04T03:58:47.223Z,90.12
2023-01-04T04:00:49.280Z,90.06
2023-01-04T04:02:51.240Z,90.22
2023-01-04T04:05:11.650Z,90.47
2023-01-04T04:07:32.323Z,90.72
2023-01-04T04:09:34.296Z,91.34
2023-01-04T04:11:36.104Z,91.26
2023-01-04T04:13:37.968Z,91.11
2023-01-04T04:15:40.273Z,91.04
2023-01-04T04:17:42.130Z,90.88
2023-01-04T04:19:44.040Z,91.02
2023-01-04T04:21:45.923Z,90.74
2023-01-04T04:23:48.209Z,91.17
2023-01-04T04:25:50.049Z,90.56
2023-01-04T04:27:53.014Z,91.14
2023-01-04T04:29:54.992Z,91.31
2023-01-04T04:31:56.917Z,91.42
2023-01-04T04:33:58.928Z,91.19
2023-01-04T04:36:00.823Z,91.12
2023-01-04T04:38:02.651Z,91.31
2023-01-04T04:40:07.170Z,91.41
2023-01-04T04:42:10.061Z,91.65
2023-01-04T04:44:15.249Z,91.08
2023-01-04T04:46:17.287Z,91.28
2023-01-04T04:48:19.200Z,92.01
2023-01-04T04:50:21.146Z,92.60
2023-01-04T04:52:23.619Z,92.56
2023-01-04T04:54:25.569Z,92.83
2023-01-04T04:56:28.698Z,92.80
2023-01-04T04:58:31.750Z,92.65
2023-01-04T05:00:33.897Z,92.99
2023-01-04T05:02:35.829Z,92.58
2023-01-04T05:04:37.803Z,92.58
2023-01-04T05:06:40.680Z,92.19
2023-01-04T05:08:42.639Z,92.80
2023-01-04T05:10:45.600Z,92.91
2023-01-04T05:13:02.658Z,93.02
2023-01-04T05:15:04.968Z,93.04
2023-01-04T05:17:06.999Z,92.96
2023-01-04T05:19:08.940Z,93.29
2023-01-04T05:21:12.794Z,93.68
2023-01-04T05:23:18.331Z,92.90
2023-01-04T05:25:20.307Z,93.48
2023-01-04T05:27:25.155Z,92.69
2023-01-04T05:29:45.836Z,92.52
2023-01-04T05:31:48.105Z,92.87
2023-01-04T05:33:50.039Z,91.84
2023-01-04T05:35:52.919Z,92.02
2023-01-04T05:37:54.855Z,92.64
2023-01-04T05:39:56.824Z,92.38
2023-01-04T05:42:17.135Z,92.28
2023-01-04T05:44:18.983Z,92.19
2023-01-04T05:46:20.848Z,92.96
2023-01-04T05:48:24.854Z,93.14
2023-01-04T05:50:26.716Z,92.49
2023-01-04T05:52:28.905Z,92.67
2023-01-04T05:54:30.840Z,92.90
2023-01-04T05:56:33.502Z,93.09
2023-01-04T05:58:35.378Z,92.89
2023-01-04T06:00:37.294Z,92.70
2023-01-04T06:02:39.449Z,93.15
2023-01-04T06:04:41.447Z,92.59
2023-01-04T06:06:43.470Z,92.21
2023-01-04T06:08:45.348Z,92.62
2023-01-04T06:10:53.593Z,92.22
2023-01-04T06:12:55.590Z,92.81
2023-01-04T06:14:57.442Z,92.64
2023-01-04T06:17:00.004Z,93.42
2023-01-04T06:19:02.757Z,93.25
2023-01-04T06:21:04.683Z,92.69
2023-01-04T06:23:06.554Z,93.42
2023-01-04T06:25:09.815Z,93.14
2023-01-04T06:27:11.800Z,92.97
2023-01-04T06:29:14.256Z,93.32
2023-01-04T06:31:16.182Z,93.29
2023-01-04T06:33:18.276Z,92.67
2023-01-04T06:35:20.195Z,93.11
2023-01-04T06:37:24.313Z,92.59
2023-01-04T06:39:26.294Z,92.57
2023-01-04T06:41:28.315Z,92.53
2023-01-04T06:43:30.402Z,92.22
2023-01-04T06:45:32.369Z,93.18
2023-01-04T06:47:35.401Z,93.26
2023-01-04T06:49:39.357Z,92.67
2023-01-04T06:51:42.312Z,92.94
2023-01-04T06:53:44.334Z,92.93
2023-01-04T06:55:46.306Z,92.82
2023-01-04T06:57:48.219Z,92.22
2023-01-04T06:59:50.276Z,92.79
2023-01-04T07:01:52.345Z,93.26
2023-01-04T07:03:54.419Z,93.23
2023-01-04T07:05:56.433Z,93.04
2023-01-04T07:08:07.993Z,92.76
2023-01-04T07:10:10.525Z,93.56
2023-01-04T07:12:13.484Z,93.11
2023-01-04T07:14:15.448Z,92.13
2023-01-04T07:16:17.516Z,91.41
2023-01-04T07:18:20.473Z,91.90
2023-01-04T07:20:22.410Z,92.86
2023-01-04T07:22:24.330Z,93.33
2023-01-04T07:24:30.291Z,92.72
2023-01-04T07:26:33.482Z,93.13
2023-01-04T07:28:53.994Z,93.67
2023-01-04T07:30:55.942Z,92.89
2023-01-04T07:32:58.376Z,93.33
2023-01-04T07:35:01.394Z,93.20
2023-01-04T07:37:03.819Z,92.82
2023-01-04T07:39:05.918Z,92.36
2023-01-04T07:41:07.976Z,92.16
2023-01-04T07:43:09.912Z,91.28
2023-01-04T07:45:12.097Z,91.67
2023-01-04T07:47:14.054Z,91.29
2023-01-04T07:49:18.704Z,90.92
2023-01-04T07:51:20.769Z,90.49
2023-01-04T07:53:22.752Z,90.42
2023-01-04T07:55:24.691Z,90.76
2023-01-04T07:57:26.629Z,90.05
2023-01-04T07:59:28.704Z,90.28
2023-01-04T08:01:30.759Z,90.07
2023-01-04T08:03:32.853Z,89.99
2023-01-04T08:05:35.234Z,89.81
2023-01-04T08:07:37.089Z,89.67
2023-01-04T08:09:39.031Z,89.65
2023-01-04T08:11:41.438Z,90.11
2023-01-04T08:13:44.060Z,89.57
2023-01-04T08:15:53.166Z,89.25
2023-01-04T08:17:56.558Z,89.16
2023-01-04T08:19:58.787Z,88.26
2023-01-04T08:22:00.703Z,88.81
2023-01-04T08:24:04.184Z,87.56
2023-01-04T08:26:11.187Z,87.63
2023-01-04T08:28:13.122Z,87.00
2023-01-04T08:30:15.117Z,85.53
2023-01-04T08:32:17.100Z,84.78
2023-01-04T08:34:20.013Z,84.21
2023-01-04T08:36:27.991Z,84.45
2023-01-04T08:38:58.900Z,84.67
2023-01-04T08:40:58.871Z,84.11
2023-01-04T08:43:05.770Z,83.40
2023-01-04T08:45:08.943Z,83.16
2023-01-04T08:47:10.932Z,81.93
2023-01-04T08:49:12.934Z,80.54
2023-01-04T08:51:16.721Z,81.20
2023-01-04T08:53:18.640Z,80.33
2023-01-04T08:55:23.439Z,79.54
2023-01-04T08:57:25.844Z,78.67
2023-01-04T08:59:27.837Z,78.25
2023-01-04T09:01:30.280Z,77.00
2023-01-04T09:03:32.811Z,76.16
2023-01-04T09:05:34.751Z,74.76
2023-01-04T09:07:36.695Z,75.00
2023-01-04T09:09:38.645Z,74.21
2023-01-04T09:11:40.616Z,74.85
2023-01-04T09:13:43.507Z,75.25
2023-01-04T09:15:45.504Z,75.08
2023-01-04T09:18:20.509Z,73.42
2023-01-04T09:20:12.543Z,72.30
2023-01-04T09:22:14.666Z,72.37
2023-01-04T09:24:16.787Z,72.04
2023-01-04T09:26:22.533Z,72.17
2023-01-04T09:28:24.487Z,72.44
2023-01-04T09:30:26.486Z,74.00
2023-01-04T09:32:30.022Z,73.76
2023-01-04T09:34:31.948Z,73.44
2023-01-04T09:36:33.932Z,72.89
2023-01-04T09:38:36.285Z,72.46
2023-01-04T09:41:13.524Z,71.72
2023-01-04T09:43:21.909Z,71.85
2023-01-04T09:45:27.972Z,72.15
2023-01-04T09:48:07.708Z,71.22
2023-01-04T09:50:24.997Z,70.74
2023-01-04T09:52:55.461Z,71.04
2023-01-04T09:55:05.091Z,69.18
2023-01-04T09:57:51.548Z,70.11
2023-01-04T10:00:01.406Z,70.82
2023-01-04T10:02:18.201Z,71.61
2023-01-04T10:04:36.586Z,71.40
2023-01-04T10:06:39.103Z,71.52
2023-01-04T10:08:43.431Z,70.06
2023-01-04T10:10:56.672Z,69.54
2023-01-04T10:13:26.783Z,70.35
2023-01-04T10:15:37.299Z,69.55
2023-01-04T10:21:31.461Z,68.50
2023-01-04T10:23:51.909Z,68.34
2023-01-04T10:25:58.082Z,68.40
2023-01-04T10:28:10.758Z,68.83
2023-01-04T10:30:44.361Z,68.37
2023-01-04T10:32:50.614Z,68.85
2023-01-04T10:34:53.860Z,69.94
2023-01-04T10:37:04.329Z,69.88
2023-01-04T10:39:18.758Z,69.88
2023-01-04T10:41:26.981Z,69.80
2023-01-04T10:44:14.402Z,70.11
2023-01-04T10:46:25.131Z,70.18
2023-01-04T10:48:51.651Z,69.25
2023-01-04T10:51:09.692Z,69.52
2023-01-04T10:53:23.801Z,69.43
2023-01-04T10:55:31.632Z,69.71
2023-01-04T10:57:55.129Z,69.64
2023-01-04T11:00:07.560Z,69.85
2023-01-04T11:02:30.513Z,70.13
2023-01-04T11:04:49.982Z,70.55
2023-01-04T11:07:11.186Z,69.98
2023-01-04T11:09:25.567Z,70.30
2023-01-04T11:11:36.273Z,69.98
2023-01-04T11:13:39.339Z,70.15
2023-01-04T11:15:42.990Z,70.06
2023-01-04T11:17:45.973Z,69.85
2023-01-04T11:19:48.237Z,69.35
2023-01-04T11:21:58.611Z,69.83
2023-01-04T11:24:30.161Z,70.37
2023-01-04T11:26:39.609Z,69.64
2023-01-04T11:28:57.832Z,69.41
2023-01-04T11:31:09.723Z,68.60
2023-01-04T11:33:16.438Z,69.49
2023-01-04T11:35:52.579Z,68.71
2023-01-04T11:38:11.036Z,68.94
2023-01-04T11:40:19.130Z,69.53
2023-01-04T11:42:22.591Z,68.50
2023-01-04T11:44:26.167Z,68.77
2023-01-04T11:46:29.850Z,68.70
2023-01-04T11:48:43.498Z,69.19
2023-01-04T11:50:51.433Z,68.89
2023-01-04T11:52:53.408Z,69.41
2023-01-04T11:54:55.490Z,68.91
2023-01-04T11:56:59.300Z,68.86
2023-01-04T11:59:24.815Z,69.53
2023-01-04T12:01:27.131Z,69.54
2023-01-04T12:03:38.698Z,70.35
2023-01-04T12:05:40.909Z,69.97
2023-01-04T12:07:43.363Z,70.35
2023-01-04T12:09:46.362Z,70.05
2023-01-04T12:11:51.929Z,70.80
2023-01-04T12:13:53.919Z,71.08
2023-01-04T12:16:08.884Z,70.97
2023-01-04T12:18:22.914Z,71.37
2023-01-04T12:20:28.965Z,71.59
2023-01-04T12:22:41.230Z,71.02
2023-01-04T12:24:45.969Z,71.26
2023-01-04T12:26:49.525Z,71.97
2023-01-04T12:29:23.280Z,71.97
2023-01-04T12:31:25.897Z,72.05
2023-01-04T12:33:30.600Z,71.86
2023-01-04T12:36:02.654Z,72.14
2023-01-04T12:38:05.032Z,72.23
2023-01-04T12:40:46.732Z,72.57
2023-01-04T12:43:15.911Z,72.67
2023-01-04T12:45:20.840Z,72.94
2023-01-04T12:47:47.472Z,72.97
2023-01-04T12:50:11.479Z,73.34
2023-01-04T12:52:34.337Z,72.98
2023-01-04T12:55:03.988Z,73.84
2023-01-04T12:57:22.880Z,73.60
2023-01-04T13:00:06.626Z,73.67
2023-01-04T13:02:15.804Z,73.32
2023-01-04T13:04:41.276Z,73.62
2023-01-04T13:06:46.133Z,73.97
2023-01-04T13:08:52.007Z,74.06
2023-01-04T13:10:57.400Z,73.78
2023-01-04T13:13:42.315Z,74.36
2023-01-04T13:16:12.146Z,74.51
2023-01-04T13:18:35.972Z,73.59
2023-01-04T13:20:39.544Z,73.72
2023-01-04T13:22:51.383Z,73.40
2023-01-04T13:24:54.117Z,73.57
2023-01-04T13:26:57.019Z,74.06
2023-01-04T13:29:18.567Z,74.17
2023-01-04T13:31:20.798Z,73.02
2023-01-04T13:33:27.292Z,73.18
2023-01-04T13:35:30.150Z,73.00
2023-01-04T13:37:36.335Z,72.58
2023-01-04T13:39:49.685Z,72.19
2023-01-04T13:41:53.094Z,72.06
2023-01-04T13:44:15.569Z,72.57
2023-01-04T13:46:24.232Z,71.38
2023-01-04T13:48:30.545Z,71.25
2023-01-04T13:50:44.372Z,71.12
2023-01-04T13:53:00.062Z,70.99
2023-01-04T13:55:21.068Z,71.07
2023-01-04T13:57:25.175Z,70.88
2023-01-04T13:59:27.418Z,71.26
2023-01-04T14:01:45.698Z,71.08
2023-01-04T14:03:52.176Z,70.56
2023-01-04T14:06:01.291Z,70.84
2023-01-04T14:08:17.475Z,70.86
2023-01-04T14:10:19.822Z,70.45
2023-01-04T14:12:27.654Z,70.91
2023-01-04T14:14:45.604Z,70.02
2023-01-04T14:16:48.367Z,70.05
2023-01-04T14:18:50.430Z,70.37
2023-01-04T14:20:52.512Z,70.41
2023-01-04T14:22:59.074Z,70.29
2023-01-04T14:25:20.341Z,70.26
2023-01-04T14:27:37.476Z,70.38
2023-01-04T14:29:40.631Z,70.47
2023-01-04T14:31:44.137Z,69.92
2023-01-04T14:33:49.465Z,69.99
2023-01-04T14:36:10.936Z,70.21
2023-01-04T14:38:19.276Z,70.46
2023-01-04T14:40:33.879Z,70.75
2023-01-04T14:42:35.883Z,71.55
2023-01-04T14:44:41.360Z,72.42
2023-01-04T14:46:47.340Z,73.14
2023-01-04T14:48:50.082Z,73.17
2023-01-04T14:50:54.066Z,74.66
2023-01-04T14:52:56.141Z,74.04
2023-01-04T14:54:59.495Z,73.58
2023-01-04T14:57:01.568Z,74.16
2023-01-04T14:59:04.019Z,74.12
2023-01-04T15:01:06.264Z,74.13
2023-01-04T15:03:09.955Z,73.25
2023-01-04T15:05:13.158Z,73.70
2023-01-04T15:07:47.542Z,73.63
2023-01-04T15:09:50.506Z,73.52
2023-01-04T15:11:53.594Z,74.26
2023-01-04T15:13:55.763Z,73.70
2023-01-04T15:15:58.448Z,74.79
2023-01-04T15:18:00.671Z,74.89
2023-01-04T15:20:04.906Z,74.63
2023-01-04T15:22:07.867Z,74.18
2023-01-04T15:24:10.864Z,73.67
2023-01-04T15:26:13.180Z,73.96
2023-01-04T15:28:16.842Z,73.78
2023-01-04T15:30:19.335Z,73.45
2023-01-04T15:32:21.305Z,73.90
2023-01-04T15:34:23.313Z,73.82
2023-01-04T15:36:25.649Z,73.78
2023-01-04T15:38:27.895Z,73.64
2023-01-04T15:40:29.862Z,73.74
2023-01-04T15:42:50.408Z,73.57
2023-01-04T15:44:52.330Z,73.06
2023-01-04T15:46:54.955Z,74.09
2023-01-04T15:48:57.005Z,73.49
2023-01-04T15:51:07.978Z,74.26
2023-01-04T15:53:10.520Z,74.59
2023-01-04T15:55:14.679Z,74.82
2023-01-04T15:57:16.867Z,74.63
2023-01-04T15:59:19.206Z,75.38
2023-01-04T16:01:23.551Z,75.38
2023-01-04T16:03:25.587Z,75.77
2023-01-04T16:05:27.655Z,75.42
2023-01-04T16:07:34.373Z,75.62
2023-01-04T16:09:38.491Z,76.09
2023-01-04T16:12:00.411Z,76.53
2023-01-04T16:14:02.741Z,75.64
2023-01-04T16:16:05.752Z,75.63
2023-01-04T16:18:07.727Z,75.69
2023-01-04T16:20:11.314Z,76.33
2023-01-04T16:22:13.424Z,76.31
2023-01-04T16:24:44.911Z,76.15
2023-01-04T16:26:38.040Z,76.17
2023-01-04T16:28:40.710Z,76.50
2023-01-04T16:30:44.832Z,77.41
2023-01-04T16:32:46.865Z,78.43
2023-01-04T16:34:51.120Z,78.58
2023-01-04T16:36:53.215Z,79.44
2023-01-04T16:38:55.326Z,79.68
2023-01-04T16:41:02.357Z,79.30
2023-01-04T16:43:04.391Z,79.60
2023-01-04T16:45:07.417Z,79.16
2023-01-04T16:47:10.473Z,79.91
2023-01-04T16:49:20.936Z,79.79
2023-01-04T16:51:26.303Z,80.83
2023-01-04T16:53:28.253Z,80.69
2023-01-04T16:55:31.279Z,81.60
2023-01-04T16:57:33.329Z,81.01
2023-01-04T16:59:36.361Z,80.75
2023-01-04T17:01:47.917Z,81.19
2023-01-04T17:03:56.958Z,81.63
2023-01-04T17:05:59.064Z,81.68
2023-01-04T17:08:02.112Z,81.69
2023-01-04T17:10:06.055Z,82.65
2023-01-04T17:14:31.174Z,83.11
2023-01-04T17:16:35.176Z,82.61
2023-01-04T17:18:38.029Z,83.59
2023-01-04T17:20:41.140Z,84.05
2023-01-04T17:22:43.185Z,84.36
2023-01-04T17:24:45.612Z,84.12
2023-01-04T17:26:50.132Z,84.62
2023-01-04T17:28:53.352Z,84.62
2023-01-04T17:30:58.904Z,84.30
2023-01-04T17:33:01.085Z,84.66
2023-01-04T17:35:03.636Z,84.65
2023-01-04T17:37:05.825Z,85.84
2023-01-04T17:39:08.830Z,85.42
2023-01-04T17:41:21.940Z,84.95
2023-01-04T17:43:23.939Z,85.51
2023-01-04T17:45:27.136Z,85.40
2023-01-04T17:47:30.260Z,84.93
2023-01-04T17:49:32.762Z,84.99
2023-01-04T17:51:38.865Z,85.53
2023-01-04T17:53:46.978Z,85.97
2023-01-04T17:55:49.312Z,85.91
2023-01-04T17:57:54.850Z,85.69
2023-01-04T17:59:57.279Z,86.18
2023-01-04T18:01:59.852Z,86.57
2023-01-04T18:04:04.940Z,86.83
2023-01-04T18:06:24.734Z,86.80
2023-01-04T18:08:27.675Z,86.62
2023-01-04T18:10:41.318Z,86.42
2023-01-04T18:12:55.091Z,86.54
2023-01-04T18:15:00.979Z,86.34
2023-01-04T18:17:06.761Z,86.72
2023-01-04T18:19:09.308Z,87.14
2023-01-04T18:21:29.439Z,87.84
2023-01-04T18:23:35.176Z,88.49
2023-01-04T18:25:38.233Z,88.29
2023-01-04T18:27:43.635Z,88.82
2023-01-04T18:29:49.592Z,89.32
2023-01-04T18:31:52.767Z,88.82
2023-01-04T18:33:57.582Z,89.30
2023-01-04T18:36:08.357Z,89.22
2023-01-04T18:38:17.067Z,89.35
2023-01-04T18:40:25.621Z,89.89
2023-01-04T18:42:30.146Z,90.05
2023-01-04T18:44:34.985Z,89.75
2023-01-04T18:46:38.157Z,90.40
2023-01-04T18:48:41.471Z,89.95
2023-01-04T18:50:44.070Z,89.86
2023-01-04T18:52:47.802Z,89.64
2023-01-04T18:54:51.714Z,89.05
2023-01-04T18:57:01.883Z,90.10
2023-01-04T18:59:04.798Z,89.73
2023-01-04T19:01:13.201Z,89.35
2023-01-04T19:03:18.705Z,88.94
2023-01-04T19:05:28.467Z,88.89
2023-01-04T19:07:36.878Z,88.98
2023-01-04T19:09:45.199Z,88.50
2023-01-04T19:11:48.471Z,88.94
2023-01-04T19:13:54.436Z,88.69
2023-01-04T19:15:57.769Z,88.52
2023-01-04T19:18:00.264Z,88.92
2023-01-04T19:20:05.366Z,89.00
2023-01-04T19:22:10.092Z,89.18
2023-01-04T19:24:17.042Z,89.72
2023-01-04T19:26:20.273Z,90.64
2023-01-04T19:28:25.327Z,90.38
2023-01-04T19:30:32.310Z,89.81
2023-01-04T19:32:42.799Z,90.22
2023-01-04T19:34:47.629Z,89.43
2023-01-04T19:36:52.653Z,90.15
2023-01-04T19:39:08.709Z,89.71
2023-01-04T19:41:26.382Z,89.76
2023-01-04T19:43:39.637Z,89.65
2023-01-04T19:45:43.128Z,90.43
2023-01-04T19:47:46.967Z,89.16
2023-01-04T19:50:03.741Z,89.28
2023-01-04T19:52:06.579Z,89.23
2023-01-04T19:54:09.160Z,89.58
2023-01-04T19:56:15.407Z,89.77
2023-01-04T19:58:18.249Z,89.54
2023-01-04T20:00:20.881Z,89.46
2023-01-04T20:02:25.177Z,90.36
2023-01-04T20:04:28.459Z,89.87
2023-01-04T20:06:33.462Z,89.61
2023-01-04T20:08:37.660Z,89.28
2023-01-04T20:10:40.259Z,90.11
2023-01-04T20:12:46.009Z,89.57
2023-01-04T20:14:51.582Z,89.73
2023-01-04T20:16:54.877Z,90.25
2023-01-04T20:18:58.364Z,90.10
2023-01-04T20:21:02.939Z,90.54
2023-01-04T20:23:06.558Z,91.08
2023-01-04T20:25:11.112Z,91.31
2023-01-04T20:27:14.283Z,90.60
2023-01-04T20:29:17.321Z,91.10
2023-01-04T20:31:20.702Z,91.22
2023-01-04T20:33:23.561Z,92.18
2023-01-04T20:35:26.428Z,91.90
2023-01-04T20:37:45.583Z,92.09
2023-01-04T20:39:49.182Z,91.60
2023-01-04T20:42:09.848Z,92.21
2023-01-04T20:44:12.829Z,92.49
2023-01-04T20:46:18.463Z,92.02
2023-01-04T20:48:21.110Z,92.47
2023-01-04T20:50:23.736Z,93.01
2023-01-04T20:52:28.155Z,93.11
2023-01-04T20:54:30.418Z,93.23
2023-01-04T20:56:38.220Z,93.24
2023-01-04T20:58:40.748Z,93.48
2023-01-04T21:00:44.249Z,93.75
2023-01-04T21:02:46.877Z,93.80
2023-01-04T21:04:50.345Z,94.19
2023-01-04T21:06:53.405Z,94.12
2023-01-04T21:08:56.732Z,93.81
2023-01-04T21:10:59.866Z,93.77
2023-01-04T21:13:02.457Z,93.88
2023-01-04T21:15:05.122Z,93.72
2023-01-04T21:17:11.350Z,93.23
2023-01-04T21:19:14.627Z,93.70
2023-01-04T21:21:18.830Z,93.43
2023-01-04T21:23:28.806Z,94.09
2023-01-04T21:25:39.280Z,93.25
2023-01-04T21:27:44.071Z,93.23
2023-01-04T21:30:05.718Z,93.65
2023-01-04T21:32:13.394Z,92.78
2023-01-04T21:34:36.135Z,93.56
2023-01-04T21:36:44.380Z,93.11
2023-01-04T21:38:50.798Z,92.88
2023-01-04T21:40:59.091Z,92.82
2023-01-04T21:43:28.519Z,92.78
2023-01-04T21:45:32.909Z,92.95
2023-01-04T21:47:36.197Z,93.07
2023-01-04T21:49:44.385Z,93.17
2023-01-04T21:51:48.305Z,93.24
2023-01-04T21:54:01.053Z,92.72
2023-01-04T21:56:16.521Z,93.62
2023-01-04T21:58:29.462Z,93.69
2023-01-04T22:00:49.106Z,94.07
2023-01-04T22:02:57.329Z,95.01
2023-01-04T22:05:02.383Z,95.61
2023-01-04T22:07:04.276Z,97.09
2023-01-04T22:09:26.403Z,97.57
2023-01-04T22:11:28.349Z,98.72
2023-01-04T22:13:30.695Z,98.77
2023-01-04T22:15:39.313Z,98.69
2023-01-04T22:17:42.501Z,98.54
2023-01-04T22:19:59.337Z,98.36
2023-01-04T22:22:04.119Z,98.53
2023-01-04T22:24:18.301Z,98.22
2023-01-04T22:26:22.787Z,98.31
2023-01-04T22:28:37.018Z,97.79
2023-01-04T22:30:44.620Z,98.26
2023-01-04T22:32:54.385Z,97.84
2023-01-04T22:34:58.388Z,98.21
2023-01-04T22:37:00.244Z,98.35
2023-01-04T22:39:02.275Z,97.77
2023-01-04T22:41:10.159Z,97.94
2023-01-04T22:43:12.098Z,98.87
2023-01-04T22:45:23.385Z,98.25
2023-01-04T22:47:26.300Z,98.31
2023-01-04T22:49:29.284Z,97.56
2023-01-04T22:51:32.310Z,98.11
2023-01-04T22:53:35.685Z,97.70
2023-01-04T22:56:17.135Z,97.76
2023-01-04T22:58:08.511Z,98.08
2023-01-04T23:00:12.060Z,97.45
2023-01-04T23:02:22.792Z,97.07
2023-01-04T23:04:24.754Z,97.26
2023-01-04T23:06:29.111Z,97.28
2023-01-04T23:08:32.882Z,97.45
2023-01-04T23:10:37.719Z,97.01
2023-01-04T23:12:39.657Z,97.05
2023-01-04T23:14:42.800Z,96.93
2023-01-04T23:16:45.546Z,97.16
2023-01-04T23:18:49.491Z,96.97
2023-01-04T23:21:01.117Z,97.40
2023-01-04T23:23:02.874Z,97.92
2023-01-04T23:25:06.007Z,97.92
2023-01-04T23:27:08.915Z,97.97
2023-01-04T23:29:16.667Z,98.01
2023-01-04T23:31:26.017Z,98.17
2023-01-04T23:33:35.661Z,98.08
2023-01-04T23:35:39.560Z,98.36
2023-01-04T23:37:41.392Z,97.88
2023-01-04T23:39:45.360Z,98.06
2023-01-04T23:41:48.368Z,98.39
2023-01-04T23:43:51.257Z,98.87
2023-01-04T23:45:54.250Z,99.06
2023-01-04T23:47:56.149Z,98.57
2023-01-04T23:49:59.007Z,98.50
2023-01-04T23:52:04.472Z,98.88
2023-01-04T23:54:09.200Z,99.04
2023-01-04T23:56:16.042Z,99.16
2023-01-04T23:58:18.056Z,99.74
